createdAt,value
2018-03-15T00:01:56.080Z,0.50
2018-03-15T00:04:25.348Z,0.50
2018-03-15T00:06:54.616Z,0.50
2018-03-15T00:09:23.852Z,0.50
2018-03-15T00:11:53.133Z,0.50
2018-03-15T00:14:22.450Z,0.50
2018-03-15T00:16:51.529Z,0.50
2018-03-15T00:19:20.843Z,0.50
2018-03-15T00:21:50.250Z,0.40
2018-03-15T00:24:19.650Z,0.40
2018-03-15T00:26:48.864Z,0.40
2018-03-15T00:29:18.157Z,0.30
2018-03-15T00:31:47.348Z,0.30
2018-03-15T00:34:16.605Z,0.20
2018-03-15T00:36:59.624Z,0.20
2018-03-15T00:39:28.839Z,0.10
2018-03-15T00:41:58.164Z,0.10
2018-03-15T00:44:27.372Z,0.00
2018-03-15T00:46:56.674Z,-0.10
2018-03-15T00:49:26.063Z,-0.10
2018-03-15T00:51:55.377Z,0.00
2018-03-15T00:54:24.728Z,-0.10
2018-03-15T00:57:11.007Z,-0.10
2018-03-15T00:59:40.291Z,-0.20
2018-03-15T01:02:10.290Z,-0.30
2018-03-15T01:04:39.646Z,-0.30
2018-03-15T01:07:08.887Z,-0.30
2018-03-15T01:09:39.002Z,-0.40
2018-03-15T01:12:08.215Z,-0.40
2018-03-15T01:14:38.300Z,-0.40
2018-03-15T01:17:08.608Z,-0.50
2018-03-15T01:19:37.951Z,-0.40
2018-03-15T01:22:07.302Z,-0.50
2018-03-15T01:24:36.642Z,-0.50
2018-03-15T01:27:05.921Z,-0.50
2018-03-15T01:29:35.898Z,-0.50
2018-03-15T01:32:05.139Z,-0.40
2018-03-15T01:34:34.407Z,-0.40
2018-03-15T01:37:03.657Z,-0.40
2018-03-15T01:39:32.887Z,-0.30
2018-03-15T01:42:02.895Z,-0.10
2018-03-15T01:44:38.631Z,-0.20
2018-03-15T01:47:07.910Z,0.00
2018-03-15T01:49:37.326Z,0.00
2018-03-15T01:52:06.521Z,0.00
2018-03-15T01:54:36.053Z,0.00
2018-03-15T01:57:05.454Z,-0.10
2018-03-15T01:59:34.829Z,-0.20
2018-03-15T02:02:04.036Z,-0.20
2018-03-15T02:04:33.333Z,-0.20
2018-03-15T02:07:02.806Z,-0.20
2018-03-15T02:09:31.989Z,-0.20
2018-03-15T02:12:05.248Z,-0.10
2018-03-15T02:14:35.229Z,-0.20
2018-03-15T02:17:04.482Z,-0.30
2018-03-15T02:19:33.740Z,-0.20
2018-03-15T02:22:11.384Z,-0.20
2018-03-15T02:24:40.633Z,-0.20
2018-03-15T02:27:09.890Z,-0.30
2018-03-15T02:29:39.247Z,-0.30
2018-03-15T02:32:08.656Z,-0.40
2018-03-15T02:34:38.858Z,-0.30
2018-03-15T02:37:20.074Z,-0.40
2018-03-15T02:39:59.838Z,-0.30
2018-03-15T02:42:31.489Z,-0.40
2018-03-15T02:45:01.536Z,-0.30
2018-03-15T02:47:30.758Z,-0.40
2018-03-15T02:50:00.263Z,-0.40
2018-03-15T02:52:29.598Z,-0.50
2018-03-15T02:54:59.582Z,-0.60
2018-03-15T02:57:29.078Z,-0.50
2018-03-15T02:59:58.294Z,-0.60
2018-03-15T03:02:28.395Z,-0.70
2018-03-15T03:04:58.430Z,-0.70
2018-03-15T03:07:27.603Z,-0.70
2018-03-15T03:09:56.920Z,-0.60
2018-03-15T03:12:26.208Z,-0.60
2018-03-15T03:14:55.441Z,-0.60
2018-03-15T03:17:25.422Z,-0.60
2018-03-15T03:19:54.730Z,-0.60
2018-03-15T03:22:24.025Z,-0.50
2018-03-15T03:24:53.258Z,-0.60
2018-03-15T03:27:22.684Z,-0.60
2018-03-15T03:29:51.943Z,-0.60
2018-03-15T03:32:21.327Z,-0.60
2018-03-15T03:34:50.560Z,-0.60
2018-03-15T03:37:20.858Z,-0.60
2018-03-15T03:39:50.071Z,-0.60
2018-03-15T03:42:19.451Z,-0.60
2018-03-15T03:44:48.882Z,-0.60
2018-03-15T03:47:18.252Z,-0.60
2018-03-15T03:49:47.457Z,-0.60
2018-03-15T03:52:16.707Z,-0.60
2018-03-15T03:54:46.153Z,-0.50
2018-03-15T03:57:15.625Z,-0.50
2018-03-15T03:59:44.884Z,-0.50
2018-03-15T04:02:14.256Z,-0.40
2018-03-15T04:04:43.537Z,-0.30
2018-03-15T04:07:12.838Z,-0.30
2018-03-15T04:09:42.082Z,-0.30
2018-03-15T04:12:12.180Z,-0.30
2018-03-15T04:14:41.481Z,-0.30
2018-03-15T04:17:11.524Z,-0.20
2018-03-15T04:19:40.892Z,-0.30
2018-03-15T04:22:10.257Z,-0.20
2018-03-15T04:24:43.292Z,-0.10
2018-03-15T04:27:12.626Z,-0.10
2018-03-15T04:29:41.883Z,0.00
2018-03-15T04:32:11.113Z,0.00
2018-03-15T04:34:48.269Z,0.10
2018-03-15T04:37:17.665Z,0.20
2018-03-15T04:39:46.976Z,0.20
2018-03-15T04:42:16.280Z,0.20
2018-03-15T04:44:45.674Z,0.30
2018-03-15T04:47:14.705Z,0.30
2018-03-15T04:49:43.943Z,0.30
2018-03-15T04:52:13.175Z,0.30
2018-03-15T04:54:43.176Z,0.30
2018-03-15T04:57:12.473Z,0.30
2018-03-15T04:59:41.837Z,0.30
2018-03-15T05:02:11.062Z,0.30
2018-03-15T05:04:40.258Z,0.30
2018-03-15T05:07:09.606Z,0.30
2018-03-15T05:10:03.964Z,0.30
2018-03-15T05:12:33.188Z,0.30
2018-03-15T05:15:02.483Z,0.40
2018-03-15T05:17:31.757Z,0.40
2018-03-15T05:20:01.003Z,0.40
2018-03-15T05:22:30.361Z,0.30
2018-03-15T05:24:59.762Z,0.30
2018-03-15T05:27:29.801Z,0.30
2018-03-15T05:29:59.763Z,0.30
2018-03-15T05:32:29.188Z,0.30
2018-03-15T05:41:23.582Z,0.40
2018-03-15T05:43:52.881Z,0.50
2018-03-15T05:49:35.739Z,0.50
2018-03-15T05:52:04.970Z,0.50
2018-03-15T05:54:44.672Z,0.60
2018-03-15T05:57:18.739Z,0.60
2018-03-15T05:59:47.967Z,0.70
2018-03-15T06:02:17.225Z,0.80
2018-03-15T06:04:46.526Z,0.80
2018-03-15T06:07:16.539Z,1.00
2018-03-15T06:09:45.856Z,1.00
2018-03-15T06:12:15.159Z,1.10
2018-03-15T06:17:45.752Z,1.30
2018-03-15T06:20:26.850Z,1.40
2018-03-15T06:22:57.807Z,1.40
2018-03-15T06:25:37.676Z,1.50
2018-03-15T06:28:07.714Z,1.70
2018-03-15T06:30:38.997Z,1.70
2018-03-15T06:33:13.953Z,1.80
2018-03-15T06:36:01.100Z,1.80
2018-03-15T06:38:34.564Z,1.90
2018-03-15T06:44:00.679Z,2.10
2018-03-15T06:46:31.994Z,2.20
2018-03-15T06:49:02.079Z,2.40
2018-03-15T06:51:32.400Z,2.40
2018-03-15T06:54:01.698Z,2.50
2018-03-15T06:56:30.860Z,2.50
2018-03-15T06:59:00.131Z,2.60
2018-03-15T07:01:29.402Z,2.70
2018-03-15T07:03:58.625Z,2.90
2018-03-15T07:06:28.659Z,3.10
2018-03-15T07:09:01.981Z,3.00
2018-03-15T07:11:31.231Z,3.20
2018-03-15T07:14:00.449Z,3.30
2018-03-15T07:16:31.881Z,3.30
2018-03-15T07:19:01.190Z,3.40
2018-03-15T07:21:35.947Z,3.50
2018-03-15T07:24:05.305Z,3.60
2018-03-15T07:26:34.665Z,3.70
2018-03-15T07:29:09.521Z,3.70
2018-03-15T07:31:51.149Z,3.80
2018-03-15T07:34:26.297Z,3.80
2018-03-15T07:36:55.638Z,3.90
2018-03-15T07:39:25.722Z,4.10
2018-03-15T07:41:55.053Z,4.10
2018-03-15T07:44:24.361Z,4.20
2018-03-15T07:46:54.426Z,4.50
2018-03-15T07:49:24.292Z,4.40
2018-03-15T07:51:53.585Z,4.60
2018-03-15T07:54:22.880Z,4.70
2018-03-15T07:56:52.187Z,4.80
2018-03-15T07:59:21.733Z,4.80
2018-03-15T08:01:54.783Z,5.00
2018-03-15T08:04:25.004Z,5.10
2018-03-15T08:06:59.115Z,5.20
2018-03-15T08:09:29.231Z,5.30
2018-03-15T08:12:06.108Z,5.30
2018-03-15T08:14:35.627Z,5.50
2018-03-15T08:17:04.978Z,5.60
2018-03-15T08:19:34.247Z,5.80
2018-03-15T08:22:03.548Z,5.90
2018-03-15T08:24:33.525Z,6.20
2018-03-15T08:27:02.908Z,6.20
2018-03-15T08:29:32.100Z,6.40
2018-03-15T08:32:01.352Z,6.50
2018-03-15T08:34:30.569Z,6.50
2018-03-15T08:36:59.916Z,6.60
2018-03-15T08:39:29.236Z,6.70
2018-03-15T08:41:58.468Z,6.80
2018-03-15T08:44:27.684Z,6.90
2018-03-15T08:46:56.999Z,7.00
2018-03-15T08:49:26.177Z,7.10
2018-03-15T08:51:55.480Z,7.30
2018-03-15T08:54:25.496Z,7.50
2018-03-15T08:56:54.820Z,7.50
2018-03-15T08:59:24.761Z,7.80
2018-03-15T09:01:54.080Z,7.80
2018-03-15T09:04:23.335Z,7.90
2018-03-15T09:06:52.759Z,8.00
2018-03-15T09:09:21.974Z,8.10
2018-03-15T09:11:51.194Z,8.20
2018-03-15T09:14:20.565Z,8.30
2018-03-15T09:16:49.858Z,8.30
2018-03-15T09:19:37.692Z,8.40
2018-03-15T09:22:21.842Z,8.40
2018-03-15T09:24:51.112Z,8.50
2018-03-15T09:27:20.370Z,8.60
2018-03-15T09:29:50.373Z,8.80
2018-03-15T09:32:21.405Z,8.90
2018-03-15T09:34:50.713Z,8.90
2018-03-15T09:37:37.098Z,9.00
2018-03-15T09:40:06.484Z,9.00
2018-03-15T09:42:36.004Z,9.10
2018-03-15T09:45:06.040Z,9.10
2018-03-15T09:47:48.020Z,9.10
2018-03-15T09:50:17.317Z,9.10
2018-03-15T09:52:46.637Z,9.20
2018-03-15T09:55:16.008Z,9.30
2018-03-15T09:57:45.281Z,9.50
2018-03-15T10:00:14.569Z,9.60
2018-03-15T10:02:46.682Z,9.70
2018-03-15T10:05:16.451Z,9.70
2018-03-15T10:07:45.737Z,9.90
2018-03-15T10:10:15.716Z,10.00
2018-03-15T10:12:44.941Z,10.00
2018-03-15T10:15:17.114Z,10.10
2018-03-15T10:17:46.394Z,10.20
2018-03-15T10:20:16.389Z,10.20
2018-03-15T10:22:46.365Z,10.30
2018-03-15T10:25:26.391Z,10.30
2018-03-15T10:27:46.662Z,10.50
2018-03-15T10:30:16.471Z,10.50
2018-03-15T10:32:45.774Z,10.60
2018-03-15T10:35:20.693Z,10.60
2018-03-15T10:37:50.709Z,11.10
2018-03-15T10:40:30.648Z,11.10
2018-03-15T10:42:59.944Z,11.40
2018-03-15T10:45:29.215Z,11.60
2018-03-15T10:47:58.574Z,11.50
2018-03-15T10:50:28.017Z,11.50
2018-03-15T10:52:57.507Z,11.50
2018-03-15T10:55:26.778Z,11.60
2018-03-15T10:57:56.857Z,11.60
2018-03-15T11:00:32.555Z,11.80
2018-03-15T11:03:07.309Z,11.80
2018-03-15T11:05:42.321Z,11.90
2018-03-15T11:08:26.035Z,12.00
2018-03-15T11:11:02.839Z,12.00
2018-03-15T11:13:32.938Z,12.20
2018-03-15T11:16:02.198Z,12.20
2018-03-15T11:18:31.509Z,12.40
2018-03-15T11:21:00.843Z,12.70
2018-03-15T11:23:30.918Z,13.00
2018-03-15T11:26:00.462Z,13.00
2018-03-15T11:28:30.463Z,13.20
2018-03-15T11:30:59.897Z,13.20
2018-03-15T11:33:29.155Z,13.20
2018-03-15T11:35:58.352Z,13.20
2018-03-15T11:38:45.809Z,13.30
2018-03-15T11:41:17.035Z,13.50
2018-03-15T11:44:05.155Z,13.60
2018-03-15T11:46:34.581Z,13.70
2018-03-15T11:49:11.934Z,13.70
2018-03-15T11:51:41.125Z,13.60
2018-03-15T11:54:10.471Z,13.70
2018-03-15T11:56:39.733Z,13.40
2018-03-15T11:59:08.961Z,13.00
2018-03-15T12:01:38.250Z,12.90
2018-03-15T12:04:31.831Z,13.10
2018-03-15T12:07:01.918Z,13.20
2018-03-15T12:09:31.262Z,13.20
2018-03-15T12:12:00.482Z,13.20
2018-03-15T12:17:37.976Z,13.30
2018-03-15T12:20:08.124Z,13.20
2018-03-15T12:22:37.469Z,13.30
2018-03-15T12:25:07.308Z,13.30
2018-03-15T12:27:36.599Z,13.40
2018-03-15T12:30:06.659Z,13.40
2018-03-15T12:32:37.607Z,13.40
2018-03-15T12:35:06.878Z,13.40
2018-03-15T12:37:36.971Z,13.50
2018-03-15T12:40:06.303Z,13.50
2018-03-15T12:42:35.586Z,13.50
2018-03-15T12:45:04.775Z,13.30
2018-03-15T12:47:34.021Z,13.10
2018-03-15T12:50:03.292Z,12.90
2018-03-15T12:52:32.570Z,12.80
2018-03-15T12:55:01.772Z,12.70
2018-03-15T12:57:30.957Z,12.80
2018-03-15T13:00:08.362Z,12.70
2018-03-15T13:02:37.613Z,12.70
2018-03-15T13:05:07.881Z,12.70
2018-03-15T13:07:37.191Z,12.80
2018-03-15T13:10:06.424Z,12.90
2018-03-15T13:12:35.615Z,13.00
2018-03-15T13:15:06.964Z,13.20
2018-03-15T13:17:36.952Z,13.50
2018-03-15T13:20:06.345Z,13.50
2018-03-15T13:22:35.672Z,13.50
2018-03-15T13:25:04.963Z,13.50
2018-03-15T13:27:34.989Z,13.50
2018-03-15T13:30:04.165Z,13.50
2018-03-15T13:32:33.497Z,13.50
2018-03-15T13:35:02.734Z,13.80
2018-03-15T13:37:31.957Z,14.10
2018-03-15T13:40:01.184Z,14.40
2018-03-15T13:42:32.395Z,14.50
2018-03-15T13:45:01.560Z,14.50
2018-03-15T13:47:30.901Z,14.40
2018-03-15T13:50:00.197Z,14.60
2018-03-15T13:52:29.333Z,14.40
2018-03-15T13:55:07.670Z,14.20
2018-03-15T13:57:36.983Z,14.20
2018-03-15T14:00:06.298Z,14.20
2018-03-15T14:02:35.511Z,14.30
2018-03-15T14:05:04.802Z,14.40
2018-03-15T14:07:33.966Z,14.60
2018-03-15T14:10:03.168Z,14.50
2018-03-15T14:12:32.492Z,14.70
2018-03-15T14:15:01.898Z,14.60
2018-03-15T14:17:31.080Z,14.60
2018-03-15T14:20:00.323Z,14.70
2018-03-15T14:22:30.369Z,15.00
2018-03-15T14:24:59.626Z,15.00
2018-03-15T14:27:29.615Z,14.70
2018-03-15T14:29:58.960Z,14.70
2018-03-15T14:32:29.008Z,14.50
2018-03-15T14:34:58.353Z,14.40
2018-03-15T14:37:27.634Z,14.40
2018-03-15T14:40:09.050Z,14.40
2018-03-15T14:42:38.362Z,14.50
2018-03-15T14:45:07.653Z,14.40
2018-03-15T14:47:36.938Z,14.30
2018-03-15T14:50:10.017Z,14.30
2018-03-15T14:53:03.024Z,14.50
2018-03-15T14:55:33.227Z,14.50
2018-03-15T14:58:03.247Z,14.30
2018-03-15T15:00:33.232Z,14.30
2018-03-15T15:03:02.548Z,14.30
2018-03-15T15:05:31.784Z,14.20
2018-03-15T15:08:01.639Z,13.90
2018-03-15T15:10:30.855Z,13.90
2018-03-15T15:12:59.867Z,13.70
2018-03-15T15:15:28.844Z,13.40
2018-03-15T15:17:57.864Z,13.20
2018-03-15T15:20:27.848Z,12.60
2018-03-15T15:22:57.874Z,12.40
2018-03-15T15:25:27.146Z,12.30
2018-03-15T15:27:56.550Z,12.10
2018-03-15T15:30:25.751Z,12.00
2018-03-15T15:32:55.112Z,12.10
2018-03-15T15:35:24.360Z,12.00
2018-03-15T15:37:53.599Z,11.90
2018-03-15T15:40:22.845Z,12.00
2018-03-15T15:42:55.932Z,11.90
2018-03-15T15:45:25.152Z,11.90
2018-03-15T15:47:54.637Z,11.90
2018-03-15T15:50:25.760Z,12.00
2018-03-15T15:52:54.977Z,12.00
2018-03-15T15:55:24.213Z,12.10
2018-03-15T15:57:53.444Z,12.10
2018-03-15T16:00:22.678Z,12.10
2018-03-15T16:02:52.034Z,12.00
2018-03-15T16:05:21.287Z,12.00
2018-03-15T16:07:50.473Z,11.80
2018-03-15T16:10:20.497Z,11.60
2018-03-15T16:12:49.727Z,11.60
2018-03-15T16:15:19.010Z,11.50
2018-03-15T16:17:49.109Z,11.40
2018-03-15T16:20:18.322Z,11.30
2018-03-15T16:22:47.704Z,11.30
2018-03-15T16:25:16.909Z,11.30
2018-03-15T16:27:46.095Z,11.20
2018-03-15T16:30:15.231Z,11.00
2018-03-15T16:32:45.437Z,11.00
2018-03-15T16:35:15.545Z,10.90
2018-03-15T16:37:44.727Z,10.90
2018-03-15T16:40:14.243Z,10.80
2018-03-15T16:42:44.250Z,10.70
2018-03-15T16:45:13.438Z,10.70
2018-03-15T16:47:42.651Z,10.60
2018-03-15T16:50:11.897Z,10.60
2018-03-15T16:52:41.917Z,10.40
2018-03-15T16:55:11.205Z,10.40
2018-03-15T16:57:40.559Z,10.30
2018-03-15T17:00:09.808Z,10.20
2018-03-15T17:02:39.000Z,10.20
2018-03-15T17:05:08.292Z,10.10
2018-03-15T17:07:38.382Z,9.80
2018-03-15T17:10:07.726Z,9.90
2018-03-15T17:12:37.714Z,9.60
2018-03-15T17:15:08.956Z,9.60
2018-03-15T17:17:38.263Z,9.50
2018-03-15T17:20:07.615Z,9.40
2018-03-15T17:22:37.050Z,9.20
2018-03-15T17:25:06.350Z,9.10
2018-03-15T17:27:35.729Z,9.00
2018-03-15T17:30:05.256Z,8.90
2018-03-15T17:32:34.557Z,8.70
2018-03-15T17:35:03.961Z,8.60
2018-03-15T17:37:33.259Z,8.50
2018-03-15T17:40:02.530Z,8.40
2018-03-15T17:42:31.722Z,8.40
2018-03-15T17:45:01.000Z,8.30
2018-03-15T17:47:31.026Z,8.10
2018-03-15T17:50:00.481Z,8.10
2018-03-15T17:52:29.777Z,8.10
2018-03-15T17:54:59.130Z,8.00
2018-03-15T17:57:29.096Z,7.90
2018-03-15T17:59:58.434Z,7.90
2018-03-15T18:02:28.441Z,7.90
2018-03-15T18:04:57.708Z,7.90
2018-03-15T18:07:26.967Z,7.80
2018-03-15T18:09:56.212Z,7.80
2018-03-15T18:12:25.430Z,7.70
2018-03-15T18:14:54.710Z,7.60
2018-03-15T18:17:24.114Z,7.60
2018-03-15T18:19:53.372Z,7.60
2018-03-15T18:22:22.619Z,7.50
2018-03-15T18:24:51.816Z,7.60
2018-03-15T18:27:21.147Z,7.60
2018-03-15T18:29:50.433Z,7.60
2018-03-15T18:32:20.532Z,7.40
2018-03-15T18:34:49.730Z,7.40
2018-03-15T18:37:19.128Z,7.40
2018-03-15T18:39:48.565Z,7.30
2018-03-15T18:42:17.783Z,7.20
2018-03-15T18:44:47.040Z,7.20
2018-03-15T18:47:16.260Z,7.20
2018-03-15T18:49:45.626Z,7.20
2018-03-15T18:52:15.228Z,7.20
2018-03-15T18:54:44.524Z,7.20
2018-03-15T18:57:13.738Z,7.30
2018-03-15T18:59:42.959Z,7.30
2018-03-15T19:02:13.016Z,7.40
2018-03-15T19:04:42.324Z,7.40
2018-03-15T19:07:11.751Z,7.40
2018-03-15T19:09:41.260Z,7.40
2018-03-15T19:12:10.961Z,7.30
2018-03-15T19:14:40.367Z,7.30
2018-03-15T19:17:09.587Z,7.30
2018-03-15T19:19:39.758Z,7.30
2018-03-15T19:22:09.023Z,7.20
2018-03-15T19:24:38.222Z,7.20
2018-03-15T19:27:07.478Z,7.30
2018-03-15T19:29:36.690Z,7.30
2018-03-15T19:32:06.726Z,7.20
2018-03-15T19:34:35.971Z,7.20
2018-03-15T19:37:05.260Z,7.20
2018-03-15T19:39:34.480Z,7.20
2018-03-15T19:42:03.720Z,7.20
2018-03-15T19:44:32.940Z,7.20
2018-03-15T19:47:02.323Z,7.20
2018-03-15T19:49:31.607Z,7.20
2018-03-15T19:52:01.705Z,7.20
2018-03-15T19:54:30.965Z,7.20
2018-03-15T19:57:00.195Z,7.10
2018-03-15T19:59:29.422Z,7.10
2018-03-15T20:01:58.615Z,7.10
2018-03-15T20:04:27.941Z,7.10
2018-03-15T20:06:57.910Z,7.10
2018-03-15T20:09:27.387Z,7.00
2018-03-15T20:11:56.614Z,7.10
2018-03-15T20:14:25.792Z,7.10
2018-03-15T20:16:55.054Z,7.10
2018-03-15T20:19:25.025Z,7.10
2018-03-15T20:21:56.070Z,7.10
2018-03-15T20:24:30.370Z,7.10
2018-03-15T20:26:59.794Z,7.10
2018-03-15T20:29:29.199Z,7.20
2018-03-15T20:31:59.211Z,7.20
2018-03-15T20:34:29.336Z,7.20
2018-03-15T20:36:58.591Z,7.20
2018-03-15T20:39:33.368Z,7.30
2018-03-15T20:42:03.587Z,7.30
2018-03-15T20:44:32.821Z,7.30
2018-03-15T20:50:02.781Z,7.30
2018-03-15T20:52:32.061Z,7.30
2018-03-15T20:55:01.315Z,7.30
2018-03-15T20:57:30.606Z,7.40
2018-03-15T20:59:59.920Z,7.30
2018-03-15T21:02:29.252Z,7.20
2018-03-15T21:04:58.573Z,7.10
2018-03-15T21:07:28.624Z,7.00
2018-03-15T21:09:57.960Z,6.90
2018-03-15T21:12:27.224Z,6.90
2018-03-15T21:14:56.563Z,7.00
2018-03-15T21:17:25.824Z,6.90
2018-03-15T21:19:55.192Z,6.90
2018-03-15T21:22:24.492Z,6.90
2018-03-15T21:24:53.961Z,7.00
2018-03-15T21:27:24.058Z,7.00
2018-03-15T21:29:53.433Z,7.00
2018-03-15T21:32:22.756Z,6.90
2018-03-15T21:34:52.132Z,6.90
2018-03-15T21:37:21.559Z,6.80
2018-03-15T21:39:50.953Z,6.80
2018-03-15T21:42:20.481Z,6.70
2018-03-15T21:44:49.827Z,6.70
2018-03-15T21:47:19.185Z,6.70
2018-03-15T21:49:48.516Z,6.70
2018-03-15T21:52:18.292Z,6.70
2018-03-15T21:54:47.638Z,6.70
2018-03-15T21:57:16.999Z,6.80
2018-03-15T21:59:46.358Z,6.80
2018-03-15T22:02:15.707Z,6.80
2018-03-15T22:04:51.094Z,6.80
2018-03-15T22:07:20.685Z,6.80
2018-03-15T22:09:50.838Z,6.80
2018-03-15T22:12:21.012Z,6.80
2018-03-15T22:14:51.091Z,6.80
2018-03-15T22:17:20.551Z,6.80
2018-03-15T22:19:50.049Z,6.80
2018-03-15T22:22:19.449Z,6.80
2018-03-15T22:24:48.833Z,6.70
2018-03-15T22:27:18.148Z,6.80
2018-03-15T22:29:47.434Z,6.80
2018-03-15T22:32:17.325Z,6.70
2018-03-15T22:34:47.427Z,6.70
2018-03-15T22:37:16.781Z,6.60
2018-03-15T22:39:46.812Z,6.60
2018-03-15T22:42:16.132Z,6.60
2018-03-15T22:44:45.425Z,6.60
2018-03-15T22:47:14.728Z,6.60
2018-03-15T22:49:44.841Z,6.50
2018-03-15T22:52:14.128Z,6.50
2018-03-15T22:54:43.423Z,6.50
2018-03-15T22:57:12.721Z,6.50
2018-03-15T22:59:42.032Z,6.50
2018-03-15T23:02:11.331Z,6.60
2018-03-15T23:04:40.627Z,6.60
2018-03-15T23:07:09.936Z,6.60
2018-03-15T23:09:39.274Z,6.60
2018-03-15T23:12:09.334Z,6.60
2018-03-15T23:14:38.604Z,6.60
2018-03-15T23:17:08.622Z,6.60
2018-03-15T23:19:38.673Z,6.60
2018-03-15T23:22:08.728Z,6.60
2018-03-15T23:24:38.004Z,6.60
2018-03-15T23:27:08.055Z,6.60
2018-03-15T23:29:37.364Z,6.60
2018-03-15T23:32:06.631Z,6.60
2018-03-15T23:34:35.899Z,6.60
2018-03-15T23:37:05.232Z,6.50
2018-03-15T23:39:34.443Z,6.50
2018-03-15T23:42:03.772Z,6.50
2018-03-15T23:44:33.071Z,6.40
2018-03-15T23:47:02.382Z,6.40
2018-03-15T23:49:31.660Z,6.40
2018-03-15T23:52:01.679Z,6.30
2018-03-15T23:54:30.961Z,6.30
2018-03-15T23:57:01.026Z,6.20
2018-03-15T23:59:31.072Z,6.30
